createdAt,value
2018-07-22T00:00:21.597Z,0
2018-07-22T00:00:47.179Z,0
2018-07-22T00:01:12.761Z,0
2018-07-22T00:01:38.347Z,0
2018-07-22T00:02:03.947Z,0
2018-07-22T00:02:29.539Z,0
2018-07-22T00:02:55.112Z,0
2018-07-22T00:03:20.704Z,0
2018-07-22T00:03:46.292Z,0
2018-07-22T00:04:11.878Z,0
2018-07-22T00:04:37.452Z,0
2018-07-22T00:05:03.058Z,0
2018-07-22T00:05:28.630Z,0
2018-07-22T00:05:54.206Z,0
2018-07-22T00:06:19.789Z,0
2018-07-22T00:06:45.359Z,0
2018-07-22T00:07:10.926Z,0
2018-07-22T00:07:36.510Z,0
2018-07-22T00:08:02.088Z,0
2018-07-22T00:08:27.661Z,0
2018-07-22T00:08:53.246Z,0
2018-07-22T00:09:18.830Z,0
2018-07-22T00:09:44.414Z,0
2018-07-22T00:10:09.989Z,0
2018-07-22T00:10:35.569Z,0
2018-07-22T00:11:01.153Z,0
2018-07-22T00:11:26.721Z,0
2018-07-22T00:11:52.306Z,0
2018-07-22T00:12:17.892Z,0
2018-07-22T00:12:43.474Z,0
2018-07-22T00:13:09.061Z,0
2018-07-22T00:13:34.633Z,0
2018-07-22T00:14:00.284Z,0
2018-07-22T00:14:25.796Z,0
2018-07-22T00:14:51.376Z,0
2018-07-22T00:15:16.944Z,0
2018-07-22T00:15:42.523Z,0
2018-07-22T00:16:08.093Z,0
2018-07-22T00:16:33.675Z,0
2018-07-22T00:16:59.255Z,0
2018-07-22T00:17:24.839Z,0
2018-07-22T00:17:50.422Z,0
2018-07-22T00:18:16.003Z,0
2018-07-22T00:18:41.573Z,0
2018-07-22T00:19:07.144Z,0
2018-07-22T00:19:32.715Z,0
2018-07-22T00:19:58.273Z,0
2018-07-22T00:20:23.859Z,0
2018-07-22T00:20:49.431Z,0
2018-07-22T00:21:15.022Z,0
2018-07-22T00:21:40.583Z,0
2018-07-22T00:22:06.188Z,0
2018-07-22T00:22:31.757Z,0
2018-07-22T00:22:57.323Z,0
2018-07-22T00:23:22.907Z,0
2018-07-22T00:23:48.488Z,0
2018-07-22T00:24:14.070Z,0
2018-07-22T00:24:39.645Z,0
2018-07-22T00:25:05.224Z,0
2018-07-22T00:25:30.817Z,0
2018-07-22T00:25:56.403Z,0
2018-07-22T00:26:21.975Z,0
2018-07-22T00:26:47.550Z,0
2018-07-22T00:27:13.150Z,0
2018-07-22T00:27:38.739Z,0
2018-07-22T00:28:04.311Z,0
2018-07-22T00:28:29.892Z,0
2018-07-22T00:28:55.462Z,0
2018-07-22T00:29:21.023Z,0
2018-07-22T00:29:46.601Z,0
2018-07-22T00:30:12.201Z,0
2018-07-22T00:30:37.767Z,0
2018-07-22T00:31:03.362Z,0
2018-07-22T00:31:28.942Z,0
2018-07-22T00:31:54.527Z,0
2018-07-22T00:32:20.110Z,0
2018-07-22T00:32:45.695Z,0
2018-07-22T00:33:11.276Z,0
2018-07-22T00:33:36.849Z,0
2018-07-22T00:34:02.429Z,0
2018-07-22T00:34:27.991Z,0
2018-07-22T00:34:53.579Z,0
2018-07-22T00:35:19.158Z,0
2018-07-22T00:35:44.749Z,0
2018-07-22T00:36:10.330Z,0
2018-07-22T00:36:35.892Z,0
2018-07-22T00:37:01.466Z,0
2018-07-22T00:37:27.048Z,0
2018-07-22T00:37:52.632Z,0
2018-07-22T00:38:18.208Z,0
2018-07-22T00:38:43.795Z,0
2018-07-22T00:39:09.375Z,0
2018-07-22T00:39:34.957Z,0
2018-07-22T00:40:00.529Z,0
2018-07-22T00:40:26.104Z,0
2018-07-22T00:40:51.701Z,0
2018-07-22T00:41:17.264Z,0
2018-07-22T00:41:42.847Z,0
2018-07-22T00:42:08.433Z,0
2018-07-22T00:42:33.999Z,0
2018-07-22T00:42:59.574Z,0
2018-07-22T00:43:25.156Z,0
2018-07-22T00:43:50.737Z,0
2018-07-22T00:44:16.320Z,0
2018-07-22T00:44:41.898Z,0
2018-07-22T00:45:07.499Z,0
2018-07-22T00:45:33.075Z,0
2018-07-22T00:45:58.673Z,0
2018-07-22T00:46:24.271Z,0
2018-07-22T00:46:49.851Z,0
2018-07-22T00:47:15.441Z,0
2018-07-22T00:47:41.039Z,0
2018-07-22T00:48:06.608Z,0
2018-07-22T00:48:32.192Z,0
2018-07-22T00:48:57.781Z,0
2018-07-22T00:49:23.357Z,0
2018-07-22T00:49:48.951Z,0
2018-07-22T00:50:14.522Z,0
2018-07-22T00:50:40.106Z,0
2018-07-22T00:51:05.679Z,0
2018-07-22T00:51:31.265Z,0
2018-07-22T00:51:56.839Z,0
2018-07-22T00:52:22.415Z,0
2018-07-22T00:52:47.983Z,0
2018-07-22T00:53:13.566Z,0
2018-07-22T00:53:39.143Z,0
2018-07-22T00:54:04.713Z,0
2018-07-22T00:54:30.290Z,0
2018-07-22T00:54:55.856Z,0
2018-07-22T00:55:21.445Z,0
2018-07-22T00:55:47.037Z,0
2018-07-22T00:56:12.621Z,0
2018-07-22T00:56:38.178Z,0
2018-07-22T00:57:03.777Z,0
2018-07-22T00:57:29.356Z,0
2018-07-22T00:57:54.937Z,0
2018-07-22T00:58:20.499Z,0
2018-07-22T00:58:46.089Z,0
2018-07-22T00:59:11.660Z,0
2018-07-22T00:59:37.222Z,0
2018-07-22T01:00:02.900Z,0
2018-07-22T01:00:28.361Z,0
2018-07-22T01:00:53.954Z,0
2018-07-22T01:01:19.508Z,0
2018-07-22T01:01:45.094Z,0
2018-07-22T01:02:10.652Z,0
2018-07-22T01:02:36.220Z,0
2018-07-22T01:03:01.793Z,0
2018-07-22T01:03:27.385Z,0
2018-07-22T01:03:52.961Z,0
2018-07-22T01:04:18.529Z,0
2018-07-22T01:04:44.117Z,0
2018-07-22T01:05:09.687Z,0
2018-07-22T01:05:35.280Z,0
2018-07-22T01:06:00.848Z,0
2018-07-22T01:06:26.425Z,0
2018-07-22T01:06:52.006Z,0
2018-07-22T01:07:17.583Z,0
2018-07-22T01:07:43.170Z,0
2018-07-22T01:08:08.736Z,0
2018-07-22T01:08:34.319Z,0
2018-07-22T01:08:59.888Z,0
2018-07-22T01:09:25.475Z,0
2018-07-22T01:09:51.048Z,0
2018-07-22T01:10:16.621Z,0
2018-07-22T01:10:42.185Z,0
2018-07-22T01:11:07.761Z,0
2018-07-22T01:11:33.351Z,0
2018-07-22T01:11:58.924Z,0
2018-07-22T01:12:24.504Z,0
2018-07-22T01:12:50.091Z,0
2018-07-22T01:13:15.668Z,0
2018-07-22T01:13:41.271Z,0
2018-07-22T01:14:06.828Z,0
2018-07-22T01:14:32.411Z,0
2018-07-22T01:14:57.999Z,0
2018-07-22T01:15:23.571Z,0
2018-07-22T01:15:49.140Z,0
2018-07-22T01:16:14.725Z,0
2018-07-22T01:16:40.296Z,0
2018-07-22T01:17:05.881Z,0
2018-07-22T01:17:31.460Z,0
2018-07-22T01:17:57.039Z,0
2018-07-22T01:18:22.613Z,0
2018-07-22T01:18:48.182Z,0
2018-07-22T01:19:13.753Z,0
2018-07-22T01:19:39.330Z,0
2018-07-22T01:20:04.900Z,0
2018-07-22T01:20:30.492Z,0
2018-07-22T01:20:56.066Z,0
2018-07-22T01:21:21.642Z,0
2018-07-22T01:21:47.221Z,0
2018-07-22T01:22:12.794Z,0
2018-07-22T01:22:38.358Z,0
2018-07-22T01:23:03.935Z,0
2018-07-22T01:23:29.509Z,0
2018-07-22T01:23:55.088Z,0
2018-07-22T01:24:20.658Z,0
2018-07-22T01:24:46.244Z,0
2018-07-22T01:25:11.817Z,0
2018-07-22T01:25:37.384Z,0
2018-07-22T01:26:02.970Z,0
2018-07-22T01:26:28.536Z,0
2018-07-22T01:26:54.106Z,0
2018-07-22T01:27:19.671Z,0
2018-07-22T01:27:45.255Z,0
2018-07-22T01:28:10.835Z,0
2018-07-22T01:28:36.408Z,0
2018-07-22T01:29:01.986Z,0
2018-07-22T01:29:27.564Z,0
2018-07-22T01:29:53.132Z,0
2018-07-22T01:30:18.728Z,0
2018-07-22T01:30:44.304Z,0
2018-07-22T01:31:09.882Z,0
2018-07-22T01:31:35.468Z,0
2018-07-22T01:32:01.080Z,0
2018-07-22T01:32:26.627Z,0
2018-07-22T01:32:52.194Z,0
2018-07-22T01:33:17.782Z,0
2018-07-22T01:33:43.344Z,0
2018-07-22T01:34:08.928Z,0
2018-07-22T01:34:34.502Z,0
2018-07-22T01:35:00.075Z,0
2018-07-22T01:35:25.660Z,0
2018-07-22T01:35:51.246Z,0
2018-07-22T01:36:16.818Z,0
2018-07-22T01:36:42.388Z,0
2018-07-22T01:37:07.954Z,0
2018-07-22T01:37:33.526Z,0
2018-07-22T01:37:59.106Z,0
2018-07-22T01:38:24.700Z,0
2018-07-22T01:38:50.278Z,0
2018-07-22T01:39:15.853Z,0
2018-07-22T01:39:41.432Z,0
2018-07-22T01:40:07.010Z,0
2018-07-22T01:40:32.604Z,0
2018-07-22T01:40:58.180Z,0
2018-07-22T01:41:23.746Z,0
2018-07-22T01:41:49.323Z,0
2018-07-22T01:42:14.907Z,0
2018-07-22T01:42:40.482Z,0
2018-07-22T01:43:06.054Z,0
2018-07-22T01:43:31.625Z,0
2018-07-22T01:43:57.201Z,0
2018-07-22T01:44:22.769Z,0
2018-07-22T01:44:48.338Z,0
2018-07-22T01:45:13.916Z,0
2018-07-22T01:45:39.496Z,0
2018-07-22T01:46:05.065Z,0
2018-07-22T01:46:30.644Z,0
2018-07-22T01:46:56.228Z,0
2018-07-22T01:47:21.806Z,0
2018-07-22T01:47:47.382Z,0
2018-07-22T01:48:12.952Z,0
2018-07-22T01:48:38.534Z,0
2018-07-22T01:49:04.105Z,0
2018-07-22T01:49:29.687Z,0
2018-07-22T01:49:55.252Z,0
2018-07-22T01:50:20.836Z,0
2018-07-22T01:50:46.405Z,0
2018-07-22T01:51:11.986Z,0
2018-07-22T01:51:37.553Z,0
2018-07-22T01:52:03.109Z,0
2018-07-22T01:52:28.685Z,0
2018-07-22T01:52:54.250Z,0
2018-07-22T01:53:19.830Z,0
2018-07-22T01:53:45.412Z,0
2018-07-22T01:54:10.980Z,0
2018-07-22T01:54:36.554Z,0
2018-07-22T01:55:02.135Z,0
2018-07-22T01:55:27.708Z,0
2018-07-22T01:55:53.281Z,0
2018-07-22T01:56:18.867Z,0
2018-07-22T01:56:44.434Z,0
2018-07-22T01:57:10.023Z,0
2018-07-22T01:57:35.598Z,0
2018-07-22T01:58:01.168Z,0
2018-07-22T01:58:26.734Z,0
2018-07-22T01:58:52.313Z,0
2018-07-22T01:59:17.888Z,0
2018-07-22T01:59:43.473Z,0
2018-07-22T02:00:09.042Z,0
2018-07-22T02:00:34.614Z,0
2018-07-22T02:01:00.187Z,0
2018-07-22T02:01:25.776Z,0
2018-07-22T02:01:51.357Z,0
2018-07-22T02:02:16.921Z,0
2018-07-22T02:02:42.488Z,0
2018-07-22T02:03:08.063Z,0
2018-07-22T02:03:33.632Z,0
2018-07-22T02:03:59.203Z,0
2018-07-22T02:04:24.784Z,0
2018-07-22T02:04:50.368Z,0
2018-07-22T02:05:15.940Z,0
2018-07-22T02:05:41.523Z,0
2018-07-22T02:06:07.099Z,0
2018-07-22T02:06:32.720Z,0
2018-07-22T02:06:58.264Z,0
2018-07-22T02:07:23.843Z,0
2018-07-22T02:07:49.427Z,0
2018-07-22T02:08:15.013Z,0
2018-07-22T02:08:40.590Z,0
2018-07-22T02:09:06.165Z,0
2018-07-22T02:09:31.757Z,0
2018-07-22T02:09:57.330Z,0
2018-07-22T02:10:22.898Z,0
2018-07-22T02:10:48.485Z,0
2018-07-22T02:11:14.062Z,0
2018-07-22T02:11:39.639Z,0
2018-07-22T02:12:05.212Z,0
2018-07-22T02:12:30.793Z,0
2018-07-22T02:12:56.379Z,0
2018-07-22T02:13:21.944Z,0
2018-07-22T02:13:47.517Z,0
2018-07-22T02:14:13.100Z,0
2018-07-22T02:14:38.683Z,0
2018-07-22T02:15:04.253Z,0
2018-07-22T02:15:29.848Z,0
2018-07-22T02:15:55.420Z,0
2018-07-22T02:16:21.000Z,0
2018-07-22T02:16:46.560Z,0
2018-07-22T02:17:12.150Z,0
2018-07-22T02:17:37.720Z,0
2018-07-22T02:18:03.270Z,0
2018-07-22T02:18:28.848Z,0
2018-07-22T02:18:54.449Z,0
2018-07-22T02:19:20.017Z,0
2018-07-22T02:19:45.598Z,0
2018-07-22T02:20:11.178Z,0
2018-07-22T02:20:36.751Z,0
2018-07-22T02:21:02.326Z,0
2018-07-22T02:21:27.883Z,0
2018-07-22T02:21:53.452Z,0
2018-07-22T02:22:19.048Z,0
2018-07-22T02:22:44.612Z,0
2018-07-22T02:23:10.194Z,0
2018-07-22T02:23:35.774Z,0
2018-07-22T02:24:01.336Z,0
2018-07-22T02:24:26.916Z,0
2018-07-22T02:24:52.484Z,0
2018-07-22T02:25:18.058Z,0
2018-07-22T02:25:43.626Z,0
2018-07-22T02:26:09.213Z,0
2018-07-22T02:26:34.792Z,0
2018-07-22T02:27:02.902Z,0
2018-07-22T02:27:27.658Z,0
2018-07-22T02:27:53.236Z,0
2018-07-22T02:28:18.802Z,0
2018-07-22T02:28:44.367Z,0
2018-07-22T02:29:09.959Z,0
2018-07-22T02:29:35.533Z,0
2018-07-22T02:30:01.112Z,0
2018-07-22T02:30:26.685Z,0
2018-07-22T02:30:52.264Z,0
2018-07-22T02:31:17.854Z,0
2018-07-22T02:31:43.444Z,0
2018-07-22T02:32:09.017Z,0
2018-07-22T02:32:34.603Z,0
2018-07-22T02:33:00.184Z,0
2018-07-22T02:33:25.763Z,0
2018-07-22T02:33:51.342Z,0
2018-07-22T02:34:16.919Z,0
2018-07-22T02:34:42.482Z,0
2018-07-22T02:35:08.060Z,0
2018-07-22T02:35:33.632Z,0
2018-07-22T02:35:59.208Z,0
2018-07-22T02:36:24.797Z,0
2018-07-22T02:36:50.369Z,0
2018-07-22T02:37:15.946Z,0
2018-07-22T02:37:41.519Z,0
2018-07-22T02:38:07.092Z,0
2018-07-22T02:38:32.654Z,0
2018-07-22T02:38:58.249Z,0
2018-07-22T02:39:23.822Z,0
2018-07-22T02:39:49.382Z,0
2018-07-22T02:40:14.949Z,0
2018-07-22T02:40:40.518Z,0
2018-07-22T02:41:06.107Z,0
2018-07-22T02:41:31.682Z,0
2018-07-22T02:41:57.246Z,0
2018-07-22T02:42:22.818Z,0
2018-07-22T02:42:48.395Z,0
2018-07-22T02:43:13.978Z,0
2018-07-22T02:43:39.548Z,0
2018-07-22T02:44:05.116Z,0
2018-07-22T02:44:30.701Z,0
2018-07-22T02:44:56.274Z,0
2018-07-22T02:45:21.857Z,0
2018-07-22T02:45:47.447Z,0
2018-07-22T02:46:13.027Z,0
2018-07-22T02:46:38.600Z,0
2018-07-22T02:47:04.179Z,0
2018-07-22T02:47:29.760Z,0
2018-07-22T02:47:55.340Z,0
2018-07-22T02:48:20.912Z,0
2018-07-22T02:48:46.492Z,0
2018-07-22T02:49:12.070Z,0
2018-07-22T02:49:37.644Z,0
2018-07-22T02:50:03.208Z,0
2018-07-22T02:50:28.786Z,0
2018-07-22T02:50:54.351Z,0
2018-07-22T02:51:19.937Z,0
2018-07-22T02:51:45.510Z,0
2018-07-22T02:52:11.076Z,0
2018-07-22T02:52:36.645Z,0
2018-07-22T02:53:02.225Z,0
2018-07-22T02:53:27.794Z,0
2018-07-22T02:53:53.368Z,0
2018-07-22T02:54:18.949Z,0
2018-07-22T02:54:44.528Z,0
2018-07-22T02:55:10.102Z,0
2018-07-22T02:55:35.672Z,0
2018-07-22T02:56:01.244Z,0
2018-07-22T02:56:26.818Z,0
2018-07-22T02:56:52.399Z,0
2018-07-22T02:57:17.961Z,0
2018-07-22T02:57:43.546Z,0
2018-07-22T02:58:09.114Z,0
2018-07-22T02:58:34.689Z,0
2018-07-22T02:59:00.271Z,0
2018-07-22T02:59:25.850Z,0
2018-07-22T02:59:51.415Z,0
2018-07-22T03:00:16.999Z,0
2018-07-22T03:00:42.568Z,0
2018-07-22T03:01:08.150Z,0
2018-07-22T03:01:33.712Z,0
2018-07-22T03:01:59.292Z,0
2018-07-22T03:02:24.853Z,0
2018-07-22T03:02:50.434Z,0
2018-07-22T03:03:16.032Z,0
2018-07-22T03:03:41.579Z,0
2018-07-22T03:04:07.154Z,0
2018-07-22T03:04:32.726Z,0
2018-07-22T03:04:58.302Z,0
2018-07-22T03:05:23.878Z,0
2018-07-22T03:05:49.448Z,0
2018-07-22T03:06:15.028Z,0
2018-07-22T03:06:40.601Z,0
2018-07-22T03:07:06.169Z,0
2018-07-22T03:07:31.749Z,0
2018-07-22T03:07:57.340Z,0
2018-07-22T03:08:22.908Z,0
2018-07-22T03:08:48.482Z,0
2018-07-22T03:09:14.058Z,0
2018-07-22T03:09:39.632Z,0
2018-07-22T03:10:05.200Z,0
2018-07-22T03:10:30.780Z,0
2018-07-22T03:10:56.359Z,0
2018-07-22T03:11:21.938Z,0
2018-07-22T03:11:47.508Z,0
2018-07-22T03:12:13.099Z,0
2018-07-22T03:12:38.671Z,0
2018-07-22T03:13:04.244Z,0
2018-07-22T03:13:29.819Z,0
2018-07-22T03:13:55.410Z,0
2018-07-22T03:14:20.986Z,0
2018-07-22T03:14:46.553Z,0
2018-07-22T03:15:12.130Z,0
2018-07-22T03:15:37.708Z,0
2018-07-22T03:16:03.285Z,0
2018-07-22T03:16:28.864Z,0
2018-07-22T03:16:54.450Z,0
2018-07-22T03:17:20.024Z,0
2018-07-22T03:17:45.606Z,0
2018-07-22T03:18:11.173Z,0
2018-07-22T03:18:36.760Z,0
2018-07-22T03:19:02.328Z,0
2018-07-22T03:19:27.887Z,0
2018-07-22T03:19:53.480Z,0
2018-07-22T03:20:19.058Z,0
2018-07-22T03:20:44.638Z,0
2018-07-22T03:21:10.207Z,0
2018-07-22T03:21:35.781Z,0
2018-07-22T03:22:01.341Z,0
2018-07-22T03:22:26.920Z,0
2018-07-22T03:22:52.500Z,0
2018-07-22T03:23:18.076Z,0
2018-07-22T03:23:43.661Z,0
2018-07-22T03:24:09.218Z,0
2018-07-22T03:24:34.795Z,0
2018-07-22T03:25:00.360Z,0
2018-07-22T03:25:25.936Z,0
2018-07-22T03:25:51.512Z,0
2018-07-22T03:26:17.092Z,0
2018-07-22T03:26:42.666Z,0
2018-07-22T03:27:08.228Z,0
2018-07-22T03:27:33.802Z,0
2018-07-22T03:27:59.370Z,0
2018-07-22T03:28:24.938Z,0
2018-07-22T03:28:50.501Z,0
2018-07-22T03:29:16.078Z,0
2018-07-22T03:29:41.680Z,0
2018-07-22T03:30:07.252Z,0
2018-07-22T03:30:32.822Z,0
2018-07-22T03:30:58.390Z,0
2018-07-22T03:31:23.972Z,0
2018-07-22T03:31:49.548Z,0
2018-07-22T03:32:15.127Z,0
2018-07-22T03:32:40.708Z,0
2018-07-22T03:33:06.280Z,0
2018-07-22T03:33:31.842Z,0
2018-07-22T03:33:57.412Z,0
2018-07-22T03:34:22.978Z,0
2018-07-22T03:34:48.562Z,0
2018-07-22T03:35:14.126Z,0
2018-07-22T03:35:39.693Z,0
2018-07-22T03:36:05.262Z,0
2018-07-22T03:36:30.860Z,0
2018-07-22T03:36:56.422Z,0
2018-07-22T03:37:21.996Z,0
2018-07-22T03:37:47.563Z,0
2018-07-22T03:38:13.135Z,0
2018-07-22T03:38:38.694Z,0
2018-07-22T03:39:04.277Z,0
2018-07-22T03:39:29.850Z,0
2018-07-22T03:39:55.420Z,0
2018-07-22T03:40:21.004Z,0
2018-07-22T03:40:46.579Z,0
2018-07-22T03:41:12.159Z,0
2018-07-22T03:41:37.736Z,0
2018-07-22T03:42:03.298Z,0
2018-07-22T03:42:28.885Z,0
2018-07-22T03:42:54.464Z,0
2018-07-22T03:43:20.045Z,0
2018-07-22T03:43:45.625Z,0
2018-07-22T03:44:11.184Z,4
2018-07-22T03:44:36.758Z,4
2018-07-22T03:45:02.349Z,4
2018-07-22T03:45:27.933Z,4
2018-07-22T03:45:53.498Z,4
2018-07-22T03:46:19.079Z,4
2018-07-22T03:46:44.645Z,4
2018-07-22T03:47:10.220Z,4
2018-07-22T03:47:35.795Z,4
2018-07-22T03:48:01.363Z,4
2018-07-22T03:48:26.926Z,4
2018-07-22T03:48:52.506Z,4
2018-07-22T03:49:18.103Z,4
2018-07-22T03:49:43.683Z,4
2018-07-22T03:50:09.256Z,0
2018-07-22T03:50:34.830Z,0
2018-07-22T03:51:00.403Z,0
2018-07-22T03:51:25.982Z,0
2018-07-22T03:51:51.560Z,0
2018-07-22T03:52:17.140Z,0
2018-07-22T03:52:42.713Z,0
2018-07-22T03:53:08.275Z,4
2018-07-22T03:53:33.848Z,4
2018-07-22T03:53:59.428Z,4
2018-07-22T03:54:24.994Z,4
2018-07-22T03:54:50.566Z,4
2018-07-22T03:55:16.150Z,4
2018-07-22T03:55:41.746Z,4
2018-07-22T03:56:07.326Z,4
2018-07-22T03:56:32.903Z,4
2018-07-22T03:56:58.476Z,4
2018-07-22T03:57:24.045Z,4
2018-07-22T03:57:49.616Z,4
2018-07-22T03:58:15.186Z,0
2018-07-22T03:58:40.764Z,4
2018-07-22T03:59:06.335Z,4
2018-07-22T03:59:31.915Z,4
2018-07-22T03:59:57.490Z,4
2018-07-22T04:00:23.074Z,4
2018-07-22T04:00:48.654Z,4
2018-07-22T04:01:14.258Z,4
2018-07-22T04:01:39.818Z,4
2018-07-22T04:02:05.397Z,4
2018-07-22T04:02:30.980Z,4
2018-07-22T04:02:56.547Z,4
2018-07-22T04:03:22.133Z,8
2018-07-22T04:03:47.712Z,8
2018-07-22T04:04:13.290Z,8
2018-07-22T04:04:38.867Z,8
2018-07-22T04:05:04.437Z,4
2018-07-22T04:05:30.009Z,4
2018-07-22T04:05:55.584Z,4
2018-07-22T04:06:21.161Z,4
2018-07-22T04:06:46.738Z,4
2018-07-22T04:07:12.306Z,4
2018-07-22T04:07:37.884Z,4
2018-07-22T04:08:03.455Z,4
2018-07-22T04:08:29.029Z,4
2018-07-22T04:08:54.606Z,8
2018-07-22T04:09:20.178Z,8
2018-07-22T04:09:45.761Z,8
2018-07-22T04:10:11.334Z,8
2018-07-22T04:10:36.909Z,8
2018-07-22T04:11:02.476Z,8
2018-07-22T04:11:28.043Z,8
2018-07-22T04:11:53.623Z,8
2018-07-22T04:12:19.195Z,4
2018-07-22T04:12:44.769Z,4
2018-07-22T04:13:10.353Z,4
2018-07-22T04:13:35.926Z,8
2018-07-22T04:14:01.499Z,8
2018-07-22T04:14:27.077Z,8
2018-07-22T04:14:52.630Z,8
2018-07-22T04:15:18.223Z,8
2018-07-22T04:15:43.789Z,8
2018-07-22T04:16:09.375Z,8
2018-07-22T04:16:34.951Z,8
2018-07-22T04:17:00.535Z,8
2018-07-22T04:17:26.113Z,12
2018-07-22T04:17:51.692Z,8
2018-07-22T04:18:17.260Z,8
2018-07-22T04:18:42.836Z,8
2018-07-22T04:19:08.398Z,8
2018-07-22T04:19:33.976Z,8
2018-07-22T04:19:59.558Z,8
2018-07-22T04:20:25.133Z,8
2018-07-22T04:20:50.712Z,12
2018-07-22T04:21:16.291Z,12
2018-07-22T04:21:41.865Z,12
2018-07-22T04:22:07.431Z,12
2018-07-22T04:22:32.998Z,8
2018-07-22T04:22:58.572Z,8
2018-07-22T04:23:24.155Z,8
2018-07-22T04:23:49.726Z,8
2018-07-22T04:24:15.299Z,8
2018-07-22T04:24:40.879Z,8
2018-07-22T04:25:06.450Z,12
2018-07-22T04:25:32.030Z,12
2018-07-22T04:25:57.619Z,12
2018-07-22T04:26:23.188Z,12
2018-07-22T04:26:48.761Z,12
2018-07-22T04:27:14.352Z,12
2018-07-22T04:27:39.923Z,12
2018-07-22T04:28:05.501Z,8
2018-07-22T04:28:31.079Z,8
2018-07-22T04:28:56.646Z,8
2018-07-22T04:29:22.222Z,8
2018-07-22T04:29:47.796Z,12
2018-07-22T04:30:13.368Z,12
2018-07-22T04:30:38.946Z,12
2018-07-22T04:31:04.527Z,12
2018-07-22T04:31:30.110Z,12
2018-07-22T04:31:55.680Z,12
2018-07-22T04:32:21.255Z,16
2018-07-22T04:32:46.848Z,16
2018-07-22T04:33:12.431Z,12
2018-07-22T04:33:37.993Z,12
2018-07-22T04:34:03.567Z,12
2018-07-22T04:34:29.148Z,12
2018-07-22T04:34:54.732Z,12
2018-07-22T04:35:20.314Z,12
2018-07-22T04:35:45.889Z,12
2018-07-22T04:36:11.465Z,16
2018-07-22T04:36:37.036Z,16
2018-07-22T04:37:02.608Z,16
2018-07-22T04:37:28.183Z,16
2018-07-22T04:37:53.757Z,16
2018-07-22T04:38:19.329Z,16
2018-07-22T04:38:44.909Z,16
2018-07-22T04:39:10.478Z,16
2018-07-22T04:39:36.065Z,16
2018-07-22T04:40:01.656Z,12
2018-07-22T04:40:27.237Z,12
2018-07-22T04:40:52.852Z,16
2018-07-22T04:41:18.376Z,16
2018-07-22T04:41:43.942Z,16
2018-07-22T04:42:09.526Z,16
2018-07-22T04:42:35.097Z,16
2018-07-22T04:43:00.673Z,16
2018-07-22T04:43:26.244Z,16
2018-07-22T04:43:51.820Z,16
2018-07-22T04:44:17.388Z,16
2018-07-22T04:44:42.958Z,16
2018-07-22T04:45:08.529Z,20
2018-07-22T04:45:34.099Z,20
2018-07-22T04:45:59.676Z,16
2018-07-22T04:46:25.240Z,16
2018-07-22T04:46:50.823Z,16
2018-07-22T04:47:16.394Z,16
2018-07-22T04:47:41.975Z,16
2018-07-22T04:48:07.544Z,16
2018-07-22T04:48:33.115Z,20
2018-07-22T04:48:58.718Z,20
2018-07-22T04:49:24.284Z,20
2018-07-22T04:49:49.852Z,20
2018-07-22T04:50:15.430Z,20
2018-07-22T04:50:41.016Z,20
2018-07-22T04:51:06.580Z,16
2018-07-22T04:51:32.156Z,16
2018-07-22T04:51:57.736Z,20
2018-07-22T04:52:23.314Z,20
2018-07-22T04:52:48.881Z,20
2018-07-22T04:53:14.462Z,20
2018-07-22T04:53:40.060Z,20
2018-07-22T04:54:05.610Z,20
2018-07-22T04:54:31.186Z,20
2018-07-22T04:54:56.742Z,20
2018-07-22T04:55:22.334Z,20
2018-07-22T04:55:47.914Z,20
2018-07-22T04:56:13.493Z,24
2018-07-22T04:56:39.062Z,20
2018-07-22T04:57:04.637Z,20
2018-07-22T04:57:30.224Z,20
2018-07-22T04:57:55.800Z,20
2018-07-22T04:58:21.370Z,20
2018-07-22T04:58:46.945Z,20
2018-07-22T04:59:12.517Z,20
2018-07-22T04:59:38.087Z,24
2018-07-22T05:00:03.672Z,24
2018-07-22T05:00:29.236Z,24
2018-07-22T05:00:54.818Z,24
2018-07-22T05:01:20.390Z,20
2018-07-22T05:01:45.954Z,24
2018-07-22T05:02:11.530Z,24
2018-07-22T05:02:37.096Z,20
2018-07-22T05:03:02.692Z,24
2018-07-22T05:03:28.272Z,24
2018-07-22T05:03:53.840Z,24
2018-07-22T05:04:19.420Z,24
2018-07-22T05:04:44.996Z,24
2018-07-22T05:05:10.568Z,24
2018-07-22T05:05:36.138Z,24
2018-07-22T05:06:01.733Z,24
2018-07-22T05:06:27.301Z,28
2018-07-22T05:06:52.876Z,24
2018-07-22T05:07:18.447Z,24
2018-07-22T05:07:44.002Z,24
2018-07-22T05:08:09.582Z,28
2018-07-22T05:08:35.157Z,28
2018-07-22T05:09:00.724Z,24
2018-07-22T05:09:26.296Z,28
2018-07-22T05:09:51.873Z,28
2018-07-22T05:10:17.432Z,28
2018-07-22T05:10:43.005Z,24
2018-07-22T05:11:08.576Z,28
2018-07-22T05:11:34.148Z,28
2018-07-22T05:11:59.719Z,28
2018-07-22T05:12:25.289Z,28
2018-07-22T05:12:50.874Z,28
2018-07-22T05:13:16.454Z,28
2018-07-22T05:13:42.023Z,28
2018-07-22T05:14:07.598Z,28
2018-07-22T05:14:33.168Z,28
2018-07-22T05:14:58.746Z,28
2018-07-22T05:15:24.327Z,28
2018-07-22T05:15:49.902Z,28
2018-07-22T05:16:15.468Z,28
2018-07-22T05:16:41.046Z,28
2018-07-22T05:17:06.618Z,28
2018-07-22T05:17:32.192Z,28
2018-07-22T05:17:57.764Z,28
2018-07-22T05:18:23.344Z,28
2018-07-22T05:18:48.907Z,24
2018-07-22T05:19:14.484Z,24
2018-07-22T05:19:40.064Z,24
2018-07-22T05:20:05.660Z,24
2018-07-22T05:20:31.228Z,24
2018-07-22T05:20:56.829Z,28
2018-07-22T05:21:22.401Z,28
2018-07-22T05:21:47.974Z,24
2018-07-22T05:22:13.558Z,28
2018-07-22T05:22:39.128Z,28
2018-07-22T05:23:04.710Z,28
2018-07-22T05:23:30.286Z,28
2018-07-22T05:23:55.866Z,28
2018-07-22T05:24:21.442Z,28
2018-07-22T05:24:47.010Z,28
2018-07-22T05:25:12.586Z,28
2018-07-22T05:25:38.162Z,28
2018-07-22T05:26:03.736Z,28
2018-07-22T05:26:29.307Z,28
2018-07-22T05:26:54.894Z,28
2018-07-22T05:27:20.481Z,28
2018-07-22T05:27:46.066Z,28
2018-07-22T05:28:11.663Z,28
2018-07-22T05:28:37.235Z,28
2018-07-22T05:29:02.810Z,28
2018-07-22T05:29:28.398Z,28
2018-07-22T05:29:53.964Z,28
2018-07-22T05:30:19.549Z,32
2018-07-22T05:30:45.132Z,28
2018-07-22T05:31:10.714Z,28
2018-07-22T05:31:36.302Z,28
2018-07-22T05:32:01.864Z,32
2018-07-22T05:32:27.433Z,28
2018-07-22T05:32:53.016Z,28
2018-07-22T05:33:18.592Z,32
2018-07-22T05:33:44.162Z,28
2018-07-22T05:34:09.744Z,32
2018-07-22T05:34:35.319Z,32
2018-07-22T05:35:00.887Z,32
2018-07-22T05:35:26.460Z,28
2018-07-22T05:35:52.026Z,28
2018-07-22T05:36:17.602Z,32
2018-07-22T05:36:43.197Z,28
2018-07-22T05:37:08.750Z,28
2018-07-22T05:37:34.340Z,28
2018-07-22T05:37:59.920Z,28
2018-07-22T05:38:25.491Z,28
2018-07-22T05:38:51.058Z,24
2018-07-22T05:39:16.628Z,32
2018-07-22T05:39:42.199Z,32
2018-07-22T05:40:07.782Z,32
2018-07-22T05:40:33.360Z,32
2018-07-22T05:40:58.934Z,28
2018-07-22T05:41:24.510Z,28
2018-07-22T05:41:50.080Z,28
2018-07-22T05:42:15.672Z,28
2018-07-22T05:42:41.233Z,28
2018-07-22T05:43:06.792Z,28
2018-07-22T05:43:32.379Z,28
2018-07-22T05:43:57.952Z,28
2018-07-22T05:44:23.529Z,36
2018-07-22T05:44:49.097Z,36
2018-07-22T05:45:14.671Z,36
2018-07-22T05:45:40.244Z,36
2018-07-22T05:46:05.844Z,36
2018-07-22T05:46:31.428Z,36
2018-07-22T05:46:56.992Z,36
2018-07-22T05:47:22.576Z,40
2018-07-22T05:47:48.153Z,44
2018-07-22T05:48:13.716Z,44
2018-07-22T05:48:39.290Z,48
2018-07-22T05:49:04.863Z,44
2018-07-22T05:49:30.450Z,44
2018-07-22T05:49:56.030Z,44
2018-07-22T05:50:21.612Z,48
2018-07-22T05:50:47.175Z,48
2018-07-22T05:51:12.750Z,44
2018-07-22T05:51:38.323Z,48
2018-07-22T05:52:03.914Z,48
2018-07-22T05:52:29.485Z,48
2018-07-22T05:52:55.067Z,44
2018-07-22T05:53:20.638Z,44
2018-07-22T05:53:46.227Z,48
2018-07-22T05:54:11.800Z,48
2018-07-22T05:54:37.368Z,48
2018-07-22T05:55:02.933Z,48
2018-07-22T05:55:28.506Z,48
2018-07-22T05:55:54.088Z,48
2018-07-22T05:56:19.645Z,48
2018-07-22T05:56:45.222Z,48
2018-07-22T05:57:10.800Z,52
2018-07-22T05:57:36.368Z,48
2018-07-22T05:58:01.957Z,48
2018-07-22T05:58:27.529Z,48
2018-07-22T05:58:53.107Z,52
2018-07-22T05:59:18.681Z,100
2018-07-22T05:59:44.262Z,100
2018-07-22T06:00:09.842Z,100
2018-07-22T06:00:35.412Z,100
2018-07-22T06:01:00.974Z,100
2018-07-22T06:01:26.542Z,100
2018-07-22T06:01:52.119Z,100
2018-07-22T06:02:17.706Z,100
2018-07-22T06:02:43.282Z,100
2018-07-22T06:03:08.887Z,100
2018-07-22T06:03:34.434Z,100
2018-07-22T06:04:00.008Z,100
2018-07-22T06:04:25.589Z,100
2018-07-22T06:04:51.170Z,100
2018-07-22T06:05:16.747Z,100
2018-07-22T06:05:42.327Z,96
2018-07-22T06:06:07.904Z,100
2018-07-22T06:06:33.480Z,100
2018-07-22T06:06:59.058Z,96
2018-07-22T06:07:24.636Z,100
2018-07-22T06:07:50.211Z,100
2018-07-22T06:08:15.775Z,96
2018-07-22T06:08:41.348Z,96
2018-07-22T06:09:06.925Z,100
2018-07-22T06:09:32.508Z,96
2018-07-22T06:09:58.085Z,96
2018-07-22T06:10:23.676Z,100
2018-07-22T06:10:49.244Z,100
2018-07-22T06:11:14.826Z,100
2018-07-22T06:11:40.405Z,100
2018-07-22T06:12:06.008Z,100
2018-07-22T06:12:31.596Z,96
2018-07-22T06:12:57.180Z,96
2018-07-22T06:13:22.761Z,100
2018-07-22T06:13:48.339Z,96